createdAt,value
2023-06-24T00:01:35.918Z,0.000
2023-06-24T00:02:36.488Z,0.000
2023-06-24T00:03:36.418Z,0.000
2023-06-24T00:05:36.639Z,0.787
2023-06-24T00:07:35.719Z,0.000
2023-06-24T00:08:36.123Z,0.000
2023-06-24T00:09:36.574Z,0.000
2023-06-24T00:10:36.334Z,0.000
2023-06-24T00:13:35.988Z,0.000
2023-06-24T00:14:36.406Z,0.000
2023-06-24T00:15:35.831Z,0.000
2023-06-24T00:16:36.335Z,0.000
2023-06-24T00:17:35.882Z,0.000
2023-06-24T00:18:35.757Z,0.000
2023-06-24T00:19:36.181Z,0.000
2023-06-24T00:20:36.467Z,0.000
2023-06-24T00:21:36.520Z,0.000
2023-06-24T00:22:35.924Z,0.407
2023-06-24T00:23:36.305Z,0.080
2023-06-24T00:24:35.650Z,0.000
2023-06-24T00:25:36.107Z,0.000
2023-06-24T00:26:36.468Z,0.000
2023-06-24T00:27:35.847Z,0.000
2023-06-24T00:28:36.236Z,0.040
2023-06-24T00:29:35.688Z,1.000
2023-06-24T00:30:36.286Z,0.720
2023-06-24T00:32:35.929Z,0.080
2023-06-24T00:33:36.520Z,0.000
2023-06-24T00:34:36.041Z,0.000
2023-06-24T00:35:35.605Z,0.000
2023-06-24T00:36:36.005Z,0.360
2023-06-24T00:37:36.473Z,0.160
2023-06-24T00:38:35.886Z,0.200
2023-06-24T00:39:36.311Z,0.040
2023-06-24T00:42:35.833Z,0.000
2023-06-24T00:43:36.224Z,0.000
2023-06-24T00:44:36.600Z,0.000
2023-06-24T00:45:36.181Z,0.000
2023-06-24T00:46:36.173Z,0.000
2023-06-24T00:47:39.945Z,0.000
2023-06-24T00:48:35.659Z,0.000
2023-06-24T00:49:36.082Z,0.000
2023-06-24T00:50:36.488Z,0.000
2023-06-24T00:51:35.993Z,0.000
2023-06-24T00:52:36.403Z,0.920
2023-06-24T00:53:35.796Z,2.560
2023-06-24T00:54:36.140Z,2.400
2023-06-24T00:55:37.502Z,2.400
2023-06-24T00:56:35.955Z,2.278
2023-06-24T00:57:36.564Z,2.872
2023-06-24T00:58:35.952Z,1.790
2023-06-24T00:59:36.028Z,1.320
2023-06-24T01:00:36.520Z,2.243
2023-06-24T01:02:35.699Z,2.200
2023-06-24T01:03:36.587Z,1.960
2023-06-24T01:05:36.529Z,1.960
2023-06-24T01:07:35.920Z,2.440
2023-06-24T01:08:36.281Z,3.240
2023-06-24T01:09:35.672Z,3.280
2023-06-24T01:10:36.153Z,2.560
2023-06-24T01:11:35.610Z,1.880
2023-06-24T01:12:36.116Z,2.120
2023-06-24T01:15:37.178Z,1.480
2023-06-24T01:16:35.717Z,2.000
2023-06-24T01:17:36.187Z,1.280
2023-06-24T01:19:36.330Z,1.680
2023-06-24T01:20:35.773Z,0.920
2023-06-24T01:21:36.491Z,0.160
2023-06-24T01:22:35.831Z,0.000
2023-06-24T01:23:36.319Z,0.000
2023-06-24T01:25:36.946Z,0.000
2023-06-24T01:27:36.083Z,0.407
2023-06-24T01:28:36.442Z,0.840
2023-06-24T01:29:35.911Z,2.840
2023-06-24T01:30:36.510Z,2.720
2023-06-24T01:31:36.233Z,2.800
2023-06-24T01:32:36.136Z,2.360
2023-06-24T01:33:36.711Z,2.000
2023-06-24T01:34:36.166Z,1.720
2023-06-24T01:35:36.153Z,0.480
2023-06-24T01:37:36.124Z,0.000
2023-06-24T01:38:36.527Z,0.000
2023-06-24T01:39:35.944Z,0.000
2023-06-24T01:40:36.359Z,0.000
2023-06-24T01:41:35.876Z,0.000
2023-06-24T01:42:36.270Z,1.280
2023-06-24T01:45:35.967Z,1.400
2023-06-24T01:46:36.531Z,0.080
2023-06-24T01:47:36.078Z,0.000
2023-06-24T01:50:36.355Z,0.000
2023-06-24T01:51:36.600Z,0.000
2023-06-24T01:52:35.977Z,0.000
2023-06-24T01:53:36.557Z,0.000
2023-06-24T01:54:35.926Z,0.000
2023-06-24T01:55:36.955Z,0.000
2023-06-24T01:57:35.908Z,0.000
2023-06-24T01:58:36.258Z,0.000
2023-06-24T02:00:36.199Z,0.000
2023-06-24T02:01:35.886Z,0.000
2023-06-24T02:02:36.315Z,0.000
2023-06-24T02:03:36.573Z,0.000
2023-06-24T02:04:36.169Z,0.000
2023-06-24T02:05:37.150Z,0.000
2023-06-24T02:06:35.883Z,0.000
2023-06-24T02:07:36.564Z,0.000
2023-06-24T02:09:36.308Z,0.240
2023-06-24T02:10:35.868Z,2.120
2023-06-24T02:11:36.418Z,0.560
2023-06-24T02:12:35.754Z,0.120
2023-06-24T02:13:36.198Z,0.000
2023-06-24T02:16:35.919Z,0.000
2023-06-24T02:17:36.601Z,0.000
2023-06-24T02:18:36.303Z,0.000
2023-06-24T02:19:35.654Z,0.000
2023-06-24T02:20:36.110Z,0.040
2023-06-24T02:21:36.551Z,1.495
2023-06-24T02:22:36.012Z,2.075
2023-06-24T02:23:36.477Z,1.120
2023-06-24T02:24:36.045Z,0.200
2023-06-24T02:25:36.810Z,0.000
2023-06-24T02:26:36.384Z,0.000
2023-06-24T02:28:36.185Z,0.000
2023-06-24T02:29:36.545Z,0.000
2023-06-24T02:30:36.026Z,0.000
2023-06-24T02:33:36.213Z,0.000
2023-06-24T02:34:35.600Z,0.000
2023-06-24T02:35:36.586Z,0.000
2023-06-24T02:38:36.036Z,0.000
2023-06-24T02:39:36.461Z,0.000
2023-06-24T02:40:35.968Z,0.000
2023-06-24T02:41:36.495Z,0.000
2023-06-24T02:42:35.943Z,0.040
2023-06-24T02:43:36.596Z,1.534
2023-06-24T02:44:36.335Z,1.871
2023-06-24T02:46:36.459Z,2.040
2023-06-24T02:47:36.180Z,2.400
2023-06-24T02:49:36.424Z,0.280
2023-06-24T02:50:35.911Z,0.000
2023-06-24T02:51:36.466Z,0.000
2023-06-24T02:52:35.918Z,0.240
2023-06-24T02:53:36.399Z,0.840
2023-06-24T02:54:35.795Z,0.240
2023-06-24T02:55:36.449Z,0.000
2023-06-24T02:58:36.056Z,0.000
2023-06-24T02:59:36.438Z,0.000
2023-06-24T03:00:35.943Z,0.000
2023-06-24T03:01:36.467Z,0.000
2023-06-24T03:02:36.209Z,0.000
2023-06-24T03:03:36.274Z,0.000
2023-06-24T03:04:35.981Z,1.040
2023-06-24T03:05:37.233Z,1.200
2023-06-24T03:06:35.924Z,1.440
2023-06-24T03:07:36.450Z,1.160
2023-06-24T03:08:35.846Z,1.600
2023-06-24T03:09:36.214Z,1.840
2023-06-24T03:10:35.611Z,0.720
2023-06-24T03:11:36.119Z,1.120
2023-06-24T03:12:36.577Z,0.236
2023-06-24T03:14:36.318Z,0.560
2023-06-24T03:15:35.894Z,1.280
2023-06-24T03:16:36.513Z,2.720
2023-06-24T03:17:36.016Z,3.240
2023-06-24T03:18:35.995Z,3.560
2023-06-24T03:19:36.382Z,3.920
2023-06-24T03:20:35.801Z,3.360
2023-06-24T03:21:36.161Z,3.600
2023-06-24T03:22:36.610Z,3.148
2023-06-24T03:23:35.947Z,2.644
2023-06-24T03:24:36.441Z,2.160
2023-06-24T03:25:36.071Z,1.320
2023-06-24T03:28:36.440Z,0.800
2023-06-24T03:29:35.872Z,1.360
2023-06-24T03:30:36.299Z,1.360
2023-06-24T03:33:36.361Z,0.680
2023-06-24T03:34:35.820Z,1.480
2023-06-24T03:35:36.532Z,1.480
2023-06-24T03:36:36.156Z,2.040
2023-06-24T03:37:36.548Z,1.849
2023-06-24T03:40:35.788Z,1.600
2023-06-24T03:41:36.383Z,0.760
2023-06-24T03:42:35.856Z,0.680
2023-06-24T03:43:36.327Z,1.720
2023-06-24T03:44:35.742Z,2.040
2023-06-24T03:45:36.703Z,1.760
2023-06-24T03:46:35.667Z,0.440
2023-06-24T03:47:36.292Z,0.000
2023-06-24T03:50:35.835Z,0.040
2023-06-24T03:51:36.374Z,0.000
2023-06-24T03:52:35.938Z,1.200
2023-06-24T03:53:36.445Z,1.680
2023-06-24T03:54:35.827Z,0.240
2023-06-24T03:55:36.473Z,0.200
2023-06-24T03:58:36.031Z,0.000
2023-06-24T03:59:36.403Z,0.920
2023-06-24T04:00:35.721Z,0.840
2023-06-24T04:01:36.238Z,0.080
2023-06-24T04:02:35.992Z,0.000
2023-06-24T04:05:36.088Z,0.000
2023-06-24T04:06:35.734Z,0.040
2023-06-24T04:07:36.338Z,0.000
2023-06-24T04:08:36.398Z,0.040
2023-06-24T04:09:35.704Z,0.000
2023-06-24T04:10:36.222Z,0.000
2023-06-24T04:11:36.753Z,1.377
2023-06-24T04:12:36.393Z,1.505
2023-06-24T04:16:36.200Z,2.888
2023-06-24T04:17:35.720Z,1.400
2023-06-24T04:18:36.407Z,0.000
2023-06-24T04:19:35.788Z,0.120
2023-06-24T04:20:38.236Z,1.960
2023-06-24T04:22:36.501Z,2.280
2023-06-24T04:23:35.955Z,2.040
2023-06-24T04:24:36.388Z,1.560
2023-06-24T04:26:36.438Z,2.320
2023-06-24T04:27:35.825Z,2.240
2023-06-24T04:28:36.304Z,1.720
2023-06-24T04:32:36.469Z,0.773
2023-06-24T04:33:36.200Z,2.120
2023-06-24T04:34:36.578Z,2.243
2023-06-24T04:35:36.226Z,1.831
2023-06-24T04:36:35.968Z,2.320
2023-06-24T04:37:36.359Z,2.280
2023-06-24T04:38:36.014Z,2.840
2023-06-24T04:39:36.394Z,3.000
2023-06-24T04:42:35.989Z,1.424
2023-06-24T04:43:36.440Z,0.760
2023-06-24T04:44:35.889Z,0.520
2023-06-24T04:45:37.034Z,1.928
2023-06-24T04:46:35.725Z,1.302
2023-06-24T04:47:36.641Z,2.400
2023-06-24T04:48:36.447Z,1.993
2023-06-24T04:50:36.934Z,3.560
2023-06-24T04:51:35.724Z,3.760
2023-06-24T04:52:36.169Z,2.160
2023-06-24T04:53:36.605Z,3.305
2023-06-24T04:54:36.010Z,1.790
2023-06-24T04:55:36.967Z,2.280
2023-06-24T04:57:35.988Z,1.790
2023-06-24T04:58:36.393Z,0.280
2023-06-24T04:59:35.748Z,1.080
2023-06-24T05:00:36.468Z,1.600
2023-06-24T05:01:36.251Z,2.400
2023-06-24T05:03:36.850Z,3.856
2023-06-24T05:04:36.216Z,2.969
2023-06-24T05:05:40.134Z,2.600
2023-06-24T05:06:35.820Z,0.040
2023-06-24T05:07:35.867Z,2.560
2023-06-24T05:08:36.462Z,3.600
2023-06-24T05:09:35.823Z,2.880
2023-06-24T05:10:36.265Z,2.400
2023-06-24T05:11:36.636Z,0.708
2023-06-24T05:12:36.057Z,1.424
2023-06-24T05:13:36.465Z,2.240
2023-06-24T05:14:35.872Z,2.160
2023-06-24T05:17:35.843Z,3.640
2023-06-24T05:18:36.584Z,4.013
2023-06-24T05:19:36.128Z,3.458
2023-06-24T05:20:36.619Z,3.620
2023-06-24T05:21:35.980Z,3.336
2023-06-24T05:22:36.382Z,0.920
2023-06-24T05:23:35.834Z,1.200
2023-06-24T05:24:36.254Z,0.040
2023-06-24T05:25:36.026Z,1.760
2023-06-24T05:29:35.954Z,0.880
2023-06-24T05:30:36.420Z,1.200
2023-06-24T05:31:35.797Z,0.680
2023-06-24T05:32:36.384Z,1.320
2023-06-24T05:34:36.603Z,0.000
2023-06-24T05:35:36.172Z,0.041
2023-06-24T05:37:36.130Z,1.280
2023-06-24T05:38:36.566Z,1.889
2023-06-24T05:39:35.950Z,1.831
2023-06-24T05:40:36.385Z,0.080
2023-06-24T05:43:35.678Z,0.000
2023-06-24T05:44:36.215Z,1.080
2023-06-24T05:45:37.174Z,0.315
2023-06-24T05:46:36.199Z,0.122
2023-06-24T05:47:36.008Z,0.040
2023-06-24T05:48:36.587Z,0.000
2023-06-24T05:49:35.985Z,0.610
2023-06-24T05:50:36.365Z,0.640
2023-06-24T05:51:35.827Z,1.160
2023-06-24T05:52:36.291Z,0.800
2023-06-24T05:53:35.740Z,0.000
2023-06-24T05:54:36.099Z,1.080
2023-06-24T05:55:37.165Z,2.125
2023-06-24T05:56:36.807Z,0.936
2023-06-24T05:59:36.563Z,0.826
2023-06-24T06:01:35.676Z,0.000
2023-06-24T06:02:36.357Z,0.080
2023-06-24T06:04:35.636Z,0.320
2023-06-24T06:05:36.255Z,0.080
2023-06-24T06:06:35.744Z,0.000
2023-06-24T06:07:36.468Z,0.040
2023-06-24T06:08:35.981Z,0.000
2023-06-24T06:09:36.563Z,0.000
2023-06-24T06:10:36.038Z,1.000
2023-06-24T06:11:36.443Z,1.320
2023-06-24T06:12:35.851Z,1.560
2023-06-24T06:13:36.471Z,2.280
2023-06-24T06:16:36.155Z,1.480
2023-06-24T06:17:36.756Z,3.187
2023-06-24T06:18:36.472Z,2.563
2023-06-24T06:20:36.103Z,2.640
2023-06-24T06:21:36.451Z,3.200
2023-06-24T06:22:35.804Z,2.080
2023-06-24T06:23:36.345Z,1.160
2023-06-24T06:26:36.415Z,0.560
2023-06-24T06:27:35.838Z,1.840
2023-06-24T06:28:36.426Z,2.360
2023-06-24T06:29:35.798Z,3.280
2023-06-24T06:30:36.500Z,1.320
2023-06-24T06:32:35.869Z,2.360
2023-06-24T06:33:35.827Z,3.760
2023-06-24T06:34:36.509Z,4.280
2023-06-24T06:35:36.549Z,2.680
2023-06-24T06:38:36.028Z,0.854
2023-06-24T06:39:36.424Z,1.520
2023-06-24T06:40:35.901Z,5.600
2023-06-24T06:41:36.418Z,3.520
2023-06-24T06:42:35.822Z,4.400
2023-06-24T06:43:36.564Z,4.879
2023-06-24T06:44:36.002Z,4.108
2023-06-24T06:46:36.064Z,3.080
2023-06-24T06:48:36.246Z,3.960
2023-06-24T06:49:36.009Z,4.320
2023-06-24T06:50:36.379Z,4.920
2023-06-24T06:51:35.779Z,3.280
2023-06-24T06:52:36.332Z,1.600
2023-06-24T06:53:35.773Z,1.920
2023-06-24T06:54:36.185Z,2.120
2023-06-24T06:55:35.964Z,3.160
2023-06-24T06:56:35.863Z,4.960
2023-06-24T06:57:36.247Z,2.600
2023-06-24T06:58:36.598Z,1.652
2023-06-24T06:59:35.990Z,3.092
2023-06-24T07:00:36.366Z,3.080
2023-06-24T07:01:36.147Z,2.640
2023-06-24T07:03:36.696Z,2.518
2023-06-24T07:04:36.487Z,6.346
2023-06-24T07:06:35.712Z,4.080
2023-06-24T07:07:35.816Z,2.400
2023-06-24T07:08:35.735Z,3.160
2023-06-24T07:09:36.168Z,0.520
2023-06-24T07:10:35.841Z,1.720
2023-06-24T07:11:35.984Z,4.440
2023-06-24T07:12:36.024Z,6.680
2023-06-24T07:13:35.703Z,7.600
2023-06-24T07:14:36.125Z,3.480
2023-06-24T07:15:37.102Z,0.433
2023-06-24T07:16:35.615Z,0.976
2023-06-24T07:17:36.234Z,0.440
2023-06-24T07:19:35.668Z,1.440
2023-06-24T07:20:35.824Z,4.520
2023-06-24T07:21:36.314Z,4.680
2023-06-24T07:22:35.969Z,3.440
2023-06-24T07:23:36.023Z,2.640
2023-06-24T07:24:36.410Z,3.280
2023-06-24T07:25:36.111Z,6.200
2023-06-24T07:28:35.851Z,5.880
2023-06-24T07:29:35.979Z,4.720
2023-06-24T07:30:36.597Z,3.856
2023-06-24T07:31:36.137Z,3.539
2023-06-24T07:32:36.353Z,1.440
2023-06-24T07:33:36.045Z,2.920
2023-06-24T07:34:36.071Z,2.720
2023-06-24T07:35:36.962Z,3.160
2023-06-24T07:37:35.810Z,2.969
2023-06-24T07:38:36.425Z,3.800
2023-06-24T07:39:35.842Z,5.080
2023-06-24T07:40:36.587Z,4.721
2023-06-24T07:43:35.996Z,1.120
2023-06-24T07:44:36.008Z,1.160
2023-06-24T07:45:37.022Z,3.720
2023-06-24T07:46:35.678Z,4.080
2023-06-24T07:47:36.572Z,0.944
2023-06-24T07:50:35.921Z,0.160
2023-06-24T07:51:35.620Z,1.800
2023-06-24T07:52:36.033Z,4.760
2023-06-24T07:53:35.904Z,9.320
2023-06-24T07:54:35.991Z,8.920
2023-06-24T07:55:36.841Z,8.080
2023-06-24T07:57:35.843Z,5.640
2023-06-24T07:58:36.521Z,7.240
2023-06-24T08:00:38.897Z,4.092
2023-06-24T08:01:36.183Z,8.949
2023-06-24T08:02:36.633Z,5.744
2023-06-24T08:03:36.478Z,7.973
2023-06-24T08:04:36.738Z,8.000
2023-06-24T08:05:36.627Z,5.240
2023-06-24T08:08:35.847Z,4.760
2023-06-24T08:09:36.364Z,8.760
2023-06-24T08:10:35.813Z,2.800
2023-06-24T08:11:36.223Z,5.840
2023-06-24T08:12:35.626Z,4.840
2023-06-24T08:13:36.061Z,4.520
2023-06-24T08:14:36.579Z,5.508
2023-06-24T08:15:36.857Z,7.729
2023-06-24T08:17:36.188Z,3.880
2023-06-24T08:18:35.952Z,4.160
2023-06-24T08:19:36.365Z,4.400
2023-06-24T08:20:35.795Z,5.000
2023-06-24T08:21:36.185Z,1.560
2023-06-24T08:22:35.694Z,2.120
2023-06-24T08:23:36.073Z,3.960
2023-06-24T08:24:36.544Z,3.384
2023-06-24T08:26:35.928Z,3.400
2023-06-24T08:27:36.320Z,4.040
2023-06-24T08:28:35.787Z,1.840
2023-06-24T08:29:36.216Z,4.560
2023-06-24T08:31:36.384Z,2.320
2023-06-24T08:32:35.818Z,0.800
2023-06-24T08:33:36.557Z,0.787
2023-06-24T08:35:36.996Z,2.080
2023-06-24T08:37:35.928Z,1.668
2023-06-24T08:38:36.352Z,5.160
2023-06-24T08:39:35.770Z,7.000
2023-06-24T08:40:36.223Z,6.960
2023-06-24T08:41:35.639Z,6.360
2023-06-24T08:42:35.839Z,4.880
2023-06-24T08:43:36.224Z,4.320
2023-06-24T08:44:35.689Z,8.200
2023-06-24T08:45:36.524Z,8.520
2023-06-24T08:46:36.597Z,7.593
2023-06-24T08:47:36.379Z,10.739
2023-06-24T08:48:35.794Z,5.800
2023-06-24T08:49:36.306Z,9.280
2023-06-24T08:52:36.093Z,7.800
2023-06-24T08:53:36.472Z,9.160
2023-06-24T08:54:35.882Z,6.720
2023-06-24T08:55:36.681Z,6.680
2023-06-24T08:56:36.229Z,6.720
2023-06-24T08:58:36.084Z,1.800
2023-06-24T08:59:36.566Z,4.957
2023-06-24T09:00:35.987Z,8.014
2023-06-24T09:01:36.484Z,15.040
2023-06-24T09:02:36.465Z,12.120
2023-06-24T09:05:36.917Z,5.960
2023-06-24T09:07:36.071Z,7.159
2023-06-24T09:08:36.554Z,8.800
2023-06-24T09:09:35.997Z,4.360
2023-06-24T09:10:36.455Z,7.120
2023-06-24T09:11:35.946Z,8.400
2023-06-24T09:12:36.375Z,7.920
2023-06-24T09:15:37.125Z,7.475
2023-06-24T09:16:36.387Z,4.963
2023-06-24T09:18:36.461Z,6.320
2023-06-24T09:19:35.943Z,12.240
2023-06-24T09:20:36.371Z,7.720
2023-06-24T09:21:35.868Z,8.640
2023-06-24T09:22:36.294Z,9.920
2023-06-24T09:25:36.110Z,6.320
2023-06-24T09:26:36.143Z,9.520
2023-06-24T09:27:36.690Z,9.520
2023-06-24T09:28:36.139Z,7.800
2023-06-24T09:29:36.539Z,9.600
2023-06-24T09:32:36.380Z,6.360
2023-06-24T09:33:36.001Z,1.720
2023-06-24T09:34:36.661Z,9.521
2023-06-24T09:35:36.195Z,6.264
2023-06-24T09:37:36.440Z,12.080
2023-06-24T09:38:35.921Z,7.720
2023-06-24T09:39:36.416Z,7.960
2023-06-24T09:42:35.641Z,1.800
2023-06-24T09:43:37.471Z,2.120
2023-06-24T09:44:36.161Z,1.680
2023-06-24T09:45:37.115Z,3.580
2023-06-24T09:46:35.963Z,6.997
2023-06-24T09:47:36.484Z,3.920
2023-06-24T09:48:36.181Z,2.800
2023-06-24T09:49:36.591Z,9.049
2023-06-24T09:52:35.751Z,3.760
2023-06-24T09:53:36.173Z,3.560
2023-06-24T09:54:38.982Z,2.203
2023-06-24T09:55:36.675Z,8.542
2023-06-24T09:56:36.404Z,6.600
2023-06-24T09:57:35.802Z,3.280
2023-06-24T09:58:36.181Z,1.080
2023-06-24T09:59:35.658Z,6.720
2023-06-24T10:00:36.318Z,5.840
2023-06-24T10:01:35.896Z,6.240
2023-06-24T10:02:36.117Z,10.640
2023-06-24T10:03:36.436Z,10.120
2023-06-24T10:04:35.807Z,5.440
2023-06-24T10:05:36.653Z,3.840
2023-06-24T10:07:35.886Z,2.680
2023-06-24T10:08:36.245Z,5.640
2023-06-24T10:09:35.655Z,7.560
2023-06-24T10:10:36.467Z,9.760
2023-06-24T10:11:35.986Z,9.720
2023-06-24T10:12:36.408Z,7.440
2023-06-24T10:15:36.407Z,1.600
2023-06-24T10:16:35.903Z,4.000
2023-06-24T10:17:36.455Z,9.240
2023-06-24T10:18:36.416Z,5.680
2023-06-24T10:20:35.938Z,10.400
2023-06-24T10:21:36.451Z,5.440
2023-06-24T10:22:35.820Z,4.560
2023-06-24T10:23:36.226Z,2.560
2023-06-24T10:24:35.609Z,3.280
2023-06-24T10:25:36.101Z,2.120
2023-06-24T10:26:36.503Z,3.720
2023-06-24T10:28:36.586Z,3.698
2023-06-24T10:29:35.955Z,0.529
2023-06-24T10:30:36.423Z,3.480
2023-06-24T10:31:36.083Z,4.000
2023-06-24T10:32:35.741Z,6.760
2023-06-24T10:33:36.443Z,4.440
2023-06-24T10:34:35.833Z,7.760
2023-06-24T10:35:36.315Z,5.480
2023-06-24T10:36:35.694Z,5.200
2023-06-24T10:37:36.083Z,5.280
2023-06-24T10:38:36.463Z,9.120
2023-06-24T10:41:35.913Z,12.520
2023-06-24T10:42:36.439Z,10.800
2023-06-24T10:43:35.963Z,8.920
2023-06-24T10:44:36.478Z,10.160
2023-06-24T10:45:35.916Z,7.760
2023-06-24T10:46:36.413Z,4.360
2023-06-24T10:47:36.108Z,4.280
2023-06-24T10:49:36.168Z,2.560
2023-06-24T10:50:36.806Z,3.659
2023-06-24T10:51:36.300Z,2.156
2023-06-24T10:54:36.544Z,5.941
2023-06-24T10:55:35.939Z,3.214
2023-06-24T10:56:36.367Z,8.240
2023-06-24T10:57:35.844Z,7.360
2023-06-24T10:58:36.372Z,7.640
2023-06-24T11:00:36.451Z,8.520
2023-06-24T11:01:36.698Z,10.560
2023-06-24T11:02:36.180Z,6.960
2023-06-24T11:03:36.337Z,7.480
2023-06-24T11:05:36.324Z,3.480
2023-06-24T11:06:35.719Z,5.040
2023-06-24T11:07:36.269Z,9.080
2023-06-24T11:08:35.805Z,10.040
2023-06-24T11:09:36.231Z,7.120
2023-06-24T11:10:36.910Z,2.479
2023-06-24T11:11:36.495Z,5.240
2023-06-24T11:14:35.949Z,10.088
2023-06-24T11:15:39.935Z,8.520
2023-06-24T11:16:36.336Z,7.640
2023-06-24T11:18:35.712Z,5.440
2023-06-24T11:19:36.108Z,5.640
2023-06-24T11:20:36.825Z,5.640
2023-06-24T11:21:35.758Z,0.600
2023-06-24T11:22:36.192Z,5.640
2023-06-24T11:23:35.769Z,5.680
2023-06-24T11:24:36.433Z,7.160
2023-06-24T11:25:35.936Z,4.320
2023-06-24T11:26:36.358Z,5.440
2023-06-24T11:27:35.860Z,6.800
2023-06-24T11:28:36.280Z,4.000
2023-06-24T11:32:35.765Z,5.680
2023-06-24T11:33:36.290Z,9.640
2023-06-24T11:34:35.774Z,5.440
2023-06-24T11:35:36.213Z,3.280
2023-06-24T11:36:35.658Z,6.720
2023-06-24T11:37:36.088Z,3.040
2023-06-24T11:38:36.530Z,6.160
2023-06-24T11:39:36.046Z,6.200
2023-06-24T11:40:36.704Z,5.240
2023-06-24T11:41:36.455Z,6.920
2023-06-24T11:43:36.314Z,4.720
2023-06-24T11:44:35.880Z,6.760
2023-06-24T11:45:36.436Z,3.880
2023-06-24T11:46:35.943Z,3.360
2023-06-24T11:47:36.463Z,6.480
2023-06-24T11:48:36.130Z,5.960
2023-06-24T11:49:36.522Z,2.597
2023-06-24T11:50:36.134Z,2.725
2023-06-24T11:54:35.711Z,2.160
2023-06-24T11:55:36.089Z,5.600
2023-06-24T11:56:35.732Z,4.640
2023-06-24T11:57:35.779Z,6.080
2023-06-24T11:58:36.148Z,3.240
2023-06-24T11:59:36.513Z,5.390
2023-06-24T12:00:36.133Z,8.786
2023-06-24T12:01:36.415Z,10.680
2023-06-24T12:04:36.744Z,7.000
2023-06-24T12:05:35.784Z,9.120
2023-06-24T12:06:36.223Z,5.720
2023-06-24T12:07:35.836Z,6.640
2023-06-24T12:08:47.204Z,5.880
2023-06-24T12:10:36.783Z,3.040
2023-06-24T12:11:36.337Z,3.280
2023-06-24T12:12:35.696Z,3.960
2023-06-24T12:13:36.134Z,2.560
2023-06-24T12:14:36.632Z,3.698
2023-06-24T12:15:36.005Z,2.766
2023-06-24T12:16:36.503Z,1.880
2023-06-24T12:20:41.551Z,8.400
2023-06-24T12:21:35.923Z,6.680
2023-06-24T12:22:36.375Z,4.440
2023-06-24T12:23:35.719Z,6.280
2023-06-24T12:24:36.206Z,3.480
2023-06-24T12:25:36.674Z,2.557
2023-06-24T12:26:36.068Z,4.434
2023-06-24T12:27:36.553Z,5.626
2023-06-24T12:30:36.140Z,6.880
2023-06-24T12:31:35.843Z,3.320
2023-06-24T12:32:36.567Z,4.600
2023-06-24T12:33:36.503Z,7.680
2023-06-24T12:35:36.231Z,3.120
2023-06-24T12:36:35.732Z,3.960
2023-06-24T12:37:36.194Z,7.560
2023-06-24T12:38:35.691Z,7.320
2023-06-24T12:39:36.116Z,9.280
2023-06-24T12:40:36.758Z,9.718
2023-06-24T12:42:36.655Z,5.311
2023-06-24T12:43:36.119Z,5.858
2023-06-24T12:44:36.487Z,4.997
2023-06-24T12:46:36.388Z,2.280
2023-06-24T12:47:35.884Z,5.880
2023-06-24T12:50:37.123Z,2.560
2023-06-24T12:51:35.829Z,1.760
2023-06-24T12:52:36.292Z,2.800
2023-06-24T12:55:35.880Z,6.080
2023-06-24T12:56:36.375Z,3.960
2023-06-24T12:57:35.814Z,6.920
2023-06-24T12:58:36.270Z,3.840
2023-06-24T12:59:35.660Z,5.760
2023-06-24T13:00:36.223Z,2.520
2023-06-24T13:02:35.707Z,3.680
2023-06-24T13:03:36.461Z,2.880
2023-06-24T13:04:36.233Z,2.280
2023-06-24T13:06:36.143Z,5.240
2023-06-24T13:07:35.842Z,5.800
2023-06-24T13:08:36.407Z,4.680
2023-06-24T13:09:35.907Z,3.200
2023-06-24T13:10:36.483Z,2.800
2023-06-24T13:13:35.881Z,7.241
2023-06-24T13:14:36.361Z,6.520
2023-06-24T13:15:35.869Z,9.120
2023-06-24T13:16:36.304Z,4.920
2023-06-24T13:17:35.712Z,2.400
2023-06-24T13:18:36.445Z,5.480
2023-06-24T13:21:36.204Z,4.160
2023-06-24T13:22:36.577Z,5.390
2023-06-24T13:23:36.003Z,3.620
2023-06-24T13:24:36.497Z,1.800
2023-06-24T13:25:35.878Z,3.960
2023-06-24T13:26:36.432Z,3.320
2023-06-24T13:28:36.384Z,0.960
2023-06-24T13:29:35.700Z,2.400
2023-06-24T13:30:36.503Z,3.840
2023-06-24T13:32:36.129Z,8.720
2023-06-24T13:33:35.884Z,6.200
2023-06-24T13:34:36.295Z,7.880
2023-06-24T13:35:35.679Z,7.160
2023-06-24T13:36:36.138Z,6.240
2023-06-24T13:37:36.653Z,7.751
2023-06-24T13:38:36.195Z,9.315
2023-06-24T13:39:36.635Z,7.436
2023-06-24T13:42:36.196Z,2.075
2023-06-24T13:43:36.598Z,7.200
2023-06-24T13:44:36.083Z,6.224
2023-06-24T13:45:36.491Z,6.560
2023-06-24T13:46:35.973Z,6.320
2023-06-24T13:48:36.429Z,11.160
2023-06-24T13:49:35.810Z,8.840
2023-06-24T13:50:36.610Z,5.960
2023-06-24T13:51:36.604Z,7.279
2023-06-24T13:52:35.992Z,5.776
2023-06-24T13:53:36.449Z,7.920
2023-06-24T13:55:36.310Z,5.800
2023-06-24T13:56:35.899Z,9.160
2023-06-24T13:57:36.344Z,13.880
2023-06-24T13:58:35.812Z,6.560
2023-06-24T13:59:36.213Z,6.960
2023-06-24T14:00:36.862Z,6.413
2023-06-24T14:01:35.905Z,8.990
2023-06-24T14:02:36.717Z,8.577
2023-06-24T14:05:35.981Z,7.485
2023-06-24T14:06:36.458Z,3.160
2023-06-24T14:07:36.135Z,4.360
2023-06-24T14:08:36.530Z,7.475
2023-06-24T14:09:35.895Z,4.515
2023-06-24T14:10:36.737Z,3.680
2023-06-24T14:11:35.700Z,3.320
2023-06-24T14:12:36.111Z,2.800
2023-06-24T14:15:36.514Z,4.240
2023-06-24T14:16:35.935Z,5.680
2023-06-24T14:17:36.430Z,4.960
2023-06-24T14:20:36.336Z,6.840
2023-06-24T14:21:35.867Z,6.200
2023-06-24T14:22:36.244Z,5.360
2023-06-24T14:23:35.644Z,3.440
2023-06-24T14:24:35.833Z,6.520
2023-06-24T14:25:36.261Z,12.200
2023-06-24T14:26:35.671Z,7.440
2023-06-24T14:27:36.100Z,7.640
2023-06-24T14:28:36.612Z,7.003
2023-06-24T14:29:35.965Z,13.505
2023-06-24T14:30:36.658Z,14.280
2023-06-24T14:31:35.930Z,7.840
2023-06-24T14:32:36.483Z,5.280
2023-06-24T14:33:36.128Z,6.520
2023-06-24T14:34:36.527Z,4.839
2023-06-24T14:37:35.964Z,5.800
2023-06-24T14:38:36.331Z,7.640
2023-06-24T14:39:35.742Z,3.800
2023-06-24T14:40:36.351Z,0.800
2023-06-24T14:41:36.024Z,3.560
2023-06-24T14:42:36.407Z,4.480
2023-06-24T14:43:35.885Z,3.880
2023-06-24T14:44:36.261Z,1.280
2023-06-24T14:47:37.681Z,3.640
2023-06-24T14:49:36.084Z,4.027
2023-06-24T14:50:36.841Z,3.400
2023-06-24T14:51:35.624Z,3.080
2023-06-24T14:52:36.124Z,4.880
2023-06-24T14:53:36.761Z,5.272
2023-06-24T14:54:36.240Z,11.105
2023-06-24T14:57:36.522Z,6.610
2023-06-24T14:58:36.075Z,7.485
2023-06-24T14:59:36.446Z,6.080
2023-06-24T15:01:35.730Z,5.960
2023-06-24T15:02:36.540Z,8.440
2023-06-24T15:03:35.951Z,8.320
2023-06-24T15:04:35.940Z,4.920
2023-06-24T15:05:36.727Z,5.600
2023-06-24T15:06:36.580Z,5.440
2023-06-24T15:07:36.134Z,3.600
2023-06-24T15:08:36.675Z,8.813
2023-06-24T15:09:37.601Z,7.444
2023-06-24T15:11:36.142Z,5.800
2023-06-24T15:12:36.615Z,7.200
2023-06-24T15:13:36.010Z,6.264
2023-06-24T15:14:36.428Z,6.200
2023-06-24T15:16:36.546Z,5.075
2023-06-24T15:20:36.067Z,5.080
2023-06-24T15:21:40.656Z,4.920
2023-06-24T15:22:36.152Z,10.400
2023-06-24T15:23:38.800Z,10.584
2023-06-24T15:24:36.336Z,9.803
2023-06-24T15:27:36.582Z,11.489
2023-06-24T15:28:35.999Z,11.959
2023-06-24T15:29:36.515Z,8.380
2023-06-24T15:32:36.500Z,6.712
2023-06-24T15:33:36.089Z,4.800
2023-06-24T15:34:36.447Z,4.160
2023-06-24T15:35:38.824Z,4.200
2023-06-24T15:36:35.631Z,4.480
2023-06-24T15:37:36.043Z,2.400
2023-06-24T15:38:36.430Z,4.680
2023-06-24T15:39:35.829Z,0.800
2023-06-24T15:40:36.646Z,1.600
2023-06-24T15:41:38.035Z,4.920
2023-06-24T15:42:35.687Z,4.760
2023-06-24T15:43:36.243Z,5.720
2023-06-24T15:44:35.628Z,6.080
2023-06-24T15:45:36.168Z,7.320
2023-06-24T15:47:38.736Z,6.360
2023-06-24T15:48:36.625Z,3.305
2023-06-24T15:49:36.258Z,3.905
2023-06-24T15:50:36.934Z,4.564
2023-06-24T15:51:36.545Z,5.280
2023-06-24T15:53:38.369Z,2.880
2023-06-24T15:54:35.816Z,4.960
2023-06-24T15:55:36.333Z,5.800
2023-06-24T15:56:35.737Z,4.640
2023-06-24T15:57:36.148Z,3.600
2023-06-24T15:58:37.133Z,3.541
2023-06-24T15:59:38.757Z,4.080
2023-06-24T16:01:36.605Z,3.480
2023-06-24T16:02:36.695Z,5.880
2023-06-24T16:03:36.927Z,6.177
2023-06-24T16:05:37.338Z,3.986
2023-06-24T16:06:36.375Z,2.720
2023-06-24T16:07:35.990Z,6.680
2023-06-24T16:08:36.370Z,5.800